createdAt,value
2023-03-29T00:00:32.965Z,23.0610
2023-03-29T00:01:36.209Z,23.0622
2023-03-29T00:02:35.210Z,23.0441
2023-03-29T00:03:36.381Z,23.0395
2023-03-29T00:04:37.455Z,23.0453
2023-03-29T00:05:38.487Z,23.0576
2023-03-29T00:06:39.603Z,23.0463
2023-03-29T00:07:40.698Z,23.0546
2023-03-29T00:08:41.785Z,23.0424
2023-03-29T00:09:43.337Z,23.0432
2023-03-29T00:10:43.973Z,23.0534
2023-03-29T00:11:45.103Z,23.0429
2023-03-29T00:12:46.190Z,23.0408
2023-03-29T00:13:47.303Z,23.0439
2023-03-29T00:14:48.390Z,23.0275
2023-03-29T00:15:49.496Z,23.0283
2023-03-29T00:16:50.615Z,23.0429
2023-03-29T00:17:51.731Z,23.0470
2023-03-29T00:18:52.800Z,23.0461
2023-03-29T00:19:53.936Z,23.0250
2023-03-29T00:20:55.008Z,23.0349
2023-03-29T00:21:56.825Z,23.0204
2023-03-29T00:22:57.205Z,23.0428
2023-03-29T00:23:58.325Z,23.0335
2023-03-29T00:24:59.436Z,23.0136
2023-03-29T00:26:00.521Z,23.0162
2023-03-29T00:27:01.612Z,23.0073
2023-03-29T00:28:02.757Z,23.0164
2023-03-29T00:29:03.811Z,23.0110
2023-03-29T00:30:04.930Z,23.0228
2023-03-29T00:31:06.033Z,23.0202
2023-03-29T00:32:07.125Z,22.9998
2023-03-29T00:33:08.236Z,23.0259
2023-03-29T00:34:09.315Z,23.0218
2023-03-29T00:35:10.433Z,23.0141
2023-03-29T00:36:11.523Z,23.0342
2023-03-29T00:37:12.621Z,23.0306
2023-03-29T00:38:13.734Z,23.0291
2023-03-29T00:39:14.866Z,23.0181
2023-03-29T00:40:16.388Z,23.0223
2023-03-29T00:41:17.019Z,23.0106
2023-03-29T00:42:18.119Z,23.0032
2023-03-29T00:43:19.216Z,23.0017
2023-03-29T00:44:20.334Z,23.0111
2023-03-29T00:45:21.443Z,23.0056
2023-03-29T00:46:22.588Z,23.0116
2023-03-29T00:47:23.728Z,23.0055
2023-03-29T00:48:24.752Z,22.9962
2023-03-29T00:49:25.831Z,23.0020
2023-03-29T00:50:26.962Z,22.9988
2023-03-29T00:51:28.049Z,22.9867
2023-03-29T00:52:29.156Z,23.0021
2023-03-29T00:53:30.275Z,22.9898
2023-03-29T00:54:31.357Z,22.9874
2023-03-29T00:55:32.464Z,22.9881
2023-03-29T00:56:33.577Z,22.9637
2023-03-29T00:57:34.654Z,22.9718
2023-03-29T00:58:35.771Z,22.9744
2023-03-29T00:59:36.867Z,22.9564
2023-03-29T01:00:38.000Z,22.9737
2023-03-29T01:01:39.104Z,22.9574
2023-03-29T01:02:40.262Z,22.9480
2023-03-29T01:03:41.393Z,22.9472
2023-03-29T01:04:42.401Z,22.9685
2023-03-29T01:05:43.498Z,22.9522
2023-03-29T01:06:44.655Z,22.9591
2023-03-29T01:07:45.699Z,22.9523
2023-03-29T01:08:46.795Z,22.9336
2023-03-29T01:09:47.897Z,22.9291
2023-03-29T01:10:49.020Z,22.9406
2023-03-29T01:11:50.093Z,22.9213
2023-03-29T01:12:51.215Z,22.9238
2023-03-29T01:13:52.303Z,22.9145
2023-03-29T01:14:53.419Z,22.9218
2023-03-29T01:15:54.515Z,22.9184
2023-03-29T01:16:55.787Z,22.9249
2023-03-29T01:17:56.745Z,22.9123
2023-03-29T01:18:57.815Z,22.8957
2023-03-29T01:19:58.924Z,22.8422
2023-03-29T01:21:00.193Z,22.8390
2023-03-29T01:22:01.111Z,22.8370
2023-03-29T01:23:02.241Z,22.8335
2023-03-29T01:24:03.322Z,22.8201
2023-03-29T01:25:04.431Z,22.8210
2023-03-29T01:26:05.542Z,22.8180
2023-03-29T01:27:06.635Z,22.8022
2023-03-29T01:28:07.717Z,22.8017
2023-03-29T01:29:08.833Z,22.7767
2023-03-29T01:30:09.921Z,22.7761
2023-03-29T01:31:11.065Z,22.7641
2023-03-29T01:32:12.150Z,22.7742
2023-03-29T01:33:13.265Z,22.7738
2023-03-29T01:34:14.331Z,22.7886
2023-03-29T01:35:15.448Z,22.7732
2023-03-29T01:36:16.884Z,22.7781
2023-03-29T01:37:17.665Z,22.7655
2023-03-29T01:38:18.764Z,22.7508
2023-03-29T01:39:19.861Z,22.7359
2023-03-29T01:40:20.961Z,22.7511
2023-03-29T01:41:23.265Z,22.7431
2023-03-29T01:42:23.156Z,22.7305
2023-03-29T01:43:24.268Z,22.7066
2023-03-29T01:44:25.361Z,22.7440
2023-03-29T01:45:26.486Z,22.6972
2023-03-29T01:46:27.882Z,22.7120
2023-03-29T01:47:28.686Z,22.7174
2023-03-29T01:48:29.775Z,22.7048
2023-03-29T01:49:30.911Z,22.7040
2023-03-29T01:50:31.980Z,22.7214
2023-03-29T01:51:33.098Z,22.7174
2023-03-29T01:52:34.169Z,22.7133
2023-03-29T01:53:35.288Z,22.7150
2023-03-29T01:54:36.380Z,22.6614
2023-03-29T01:55:37.489Z,22.6668
2023-03-29T01:56:38.636Z,22.6964
2023-03-29T01:57:39.684Z,22.7117
2023-03-29T01:58:40.790Z,22.7540
2023-03-29T01:59:41.894Z,22.6832
2023-03-29T02:00:42.985Z,22.7484
2023-03-29T02:01:44.184Z,22.7602
2023-03-29T02:02:45.285Z,22.7395
2023-03-29T02:03:46.350Z,22.7071
2023-03-29T02:04:47.394Z,22.6892
2023-03-29T02:05:48.527Z,22.7137
2023-03-29T02:06:49.630Z,22.6955
2023-03-29T02:07:50.722Z,22.7785
2023-03-29T02:08:51.813Z,22.7467
2023-03-29T02:09:52.933Z,22.7477
2023-03-29T02:10:54.029Z,22.6819
2023-03-29T02:11:55.156Z,22.6890
2023-03-29T02:12:56.238Z,22.7098
2023-03-29T02:13:57.359Z,22.7045
2023-03-29T02:14:58.446Z,22.7067
2023-03-29T02:15:59.639Z,22.7527
2023-03-29T02:17:00.882Z,22.6857
2023-03-29T02:18:01.816Z,22.6584
2023-03-29T02:19:02.878Z,22.6612
2023-03-29T02:20:04.002Z,22.6607
2023-03-29T02:21:05.076Z,22.6741
2023-03-29T02:22:06.226Z,22.7207
2023-03-29T02:23:07.309Z,22.7016
2023-03-29T02:24:08.417Z,22.6899
2023-03-29T02:25:09.515Z,22.6649
2023-03-29T02:26:10.636Z,22.6501
2023-03-29T02:27:11.751Z,22.6745
2023-03-29T02:28:12.850Z,22.7030
2023-03-29T02:29:13.944Z,22.7175
2023-03-29T02:30:15.051Z,22.7109
2023-03-29T02:31:16.203Z,22.7303
2023-03-29T02:32:17.274Z,22.6977
2023-03-29T02:33:18.402Z,22.7504
2023-03-29T02:34:19.478Z,22.7238
2023-03-29T02:35:20.563Z,22.7024
2023-03-29T02:36:21.678Z,22.6903
2023-03-29T02:37:22.792Z,22.7102
2023-03-29T02:38:23.892Z,22.7474
2023-03-29T02:39:24.984Z,22.7366
2023-03-29T02:40:26.135Z,22.7438
2023-03-29T02:41:27.199Z,22.7308
2023-03-29T02:42:28.374Z,22.7459
2023-03-29T02:43:29.408Z,22.7528
2023-03-29T02:44:30.522Z,22.7112
2023-03-29T02:45:31.614Z,22.6981
2023-03-29T02:46:32.778Z,22.7266
2023-03-29T02:47:33.910Z,22.7691
2023-03-29T02:48:34.930Z,22.7560
2023-03-29T02:49:36.027Z,22.7160
2023-03-29T02:50:37.136Z,22.7027
2023-03-29T02:51:38.244Z,22.6765
2023-03-29T02:52:39.380Z,22.6479
2023-03-29T02:53:40.436Z,22.6574
2023-03-29T02:54:41.558Z,22.6559
2023-03-29T02:55:42.656Z,22.6794
2023-03-29T02:56:43.796Z,22.7040
2023-03-29T02:57:44.887Z,22.7302
2023-03-29T02:58:45.966Z,22.7005
2023-03-29T02:59:47.086Z,22.7210
2023-03-29T03:00:48.177Z,22.7132
2023-03-29T03:01:49.316Z,22.7347
2023-03-29T03:02:50.440Z,22.7179
2023-03-29T03:03:51.581Z,22.7343
2023-03-29T03:04:52.628Z,22.7290
2023-03-29T03:05:53.729Z,22.7201
2023-03-29T03:06:54.813Z,22.7318
2023-03-29T03:07:55.937Z,22.7394
2023-03-29T03:08:57.018Z,22.7314
2023-03-29T03:09:58.137Z,22.7219
2023-03-29T03:10:59.325Z,22.7045
2023-03-29T03:12:00.354Z,22.7326
2023-03-29T03:13:01.455Z,22.7330
2023-03-29T03:14:02.561Z,22.7120
2023-03-29T03:15:03.660Z,22.7213
2023-03-29T03:16:04.819Z,22.7355
2023-03-29T03:17:05.855Z,22.7326
2023-03-29T03:18:07.466Z,22.7399
2023-03-29T03:19:08.066Z,22.7393
2023-03-29T03:20:09.178Z,22.7459
2023-03-29T03:21:10.270Z,22.7357
2023-03-29T03:22:11.389Z,22.7325
2023-03-29T03:23:12.478Z,22.7257
2023-03-29T03:24:13.573Z,22.7301
2023-03-29T03:25:14.673Z,22.7393
2023-03-29T03:26:15.789Z,22.7535
2023-03-29T03:27:16.867Z,22.7345
2023-03-29T03:28:18.419Z,22.7441
2023-03-29T03:29:19.079Z,22.7376
2023-03-29T03:30:20.249Z,22.7595
2023-03-29T03:31:21.442Z,22.7433
2023-03-29T03:32:22.458Z,22.7555
2023-03-29T03:33:23.559Z,22.7676
2023-03-29T03:34:24.648Z,22.7611
2023-03-29T03:35:25.762Z,22.7427
2023-03-29T03:36:26.854Z,22.7671
2023-03-29T03:37:27.973Z,22.7768
2023-03-29T03:38:29.063Z,22.7762
2023-03-29T03:39:30.137Z,22.7804
2023-03-29T03:40:31.238Z,22.7596
2023-03-29T03:41:32.329Z,22.7702
2023-03-29T03:42:33.441Z,22.7799
2023-03-29T03:43:34.604Z,22.7786
2023-03-29T03:44:35.648Z,22.7765
2023-03-29T03:45:36.722Z,22.7773
2023-03-29T03:46:37.844Z,22.7806
2023-03-29T03:47:38.967Z,22.7752
2023-03-29T03:48:40.053Z,22.7553
2023-03-29T03:49:41.114Z,22.7555
2023-03-29T03:50:42.237Z,22.7724
2023-03-29T03:51:43.335Z,22.7716
2023-03-29T03:52:44.434Z,22.7736
2023-03-29T03:53:45.545Z,22.7863
2023-03-29T03:54:46.644Z,22.7929
2023-03-29T03:55:47.737Z,22.7823
2023-03-29T03:56:48.884Z,22.7692
2023-03-29T03:57:49.944Z,22.7599
2023-03-29T03:58:51.076Z,22.7839
2023-03-29T03:59:52.150Z,22.7973
2023-03-29T04:00:53.309Z,22.7858
2023-03-29T04:01:54.349Z,22.7824
2023-03-29T04:02:55.555Z,22.7569
2023-03-29T04:03:56.649Z,22.7595
2023-03-29T04:04:57.684Z,22.7490
2023-03-29T04:05:58.774Z,22.7412
2023-03-29T04:06:59.873Z,22.7383
2023-03-29T04:08:00.971Z,22.7355
2023-03-29T04:09:02.119Z,22.7637
2023-03-29T04:10:03.202Z,22.7387
2023-03-29T04:11:04.464Z,22.7696
2023-03-29T04:12:05.371Z,22.7862
2023-03-29T04:13:06.515Z,22.7479
2023-03-29T04:14:07.600Z,22.7759
2023-03-29T04:15:08.717Z,22.7707
2023-03-29T04:16:09.846Z,22.7659
2023-03-29T04:17:10.897Z,22.7675
2023-03-29T04:18:12.034Z,22.7647
2023-03-29T04:19:13.110Z,22.7786
2023-03-29T04:20:14.163Z,22.7485
2023-03-29T04:21:15.298Z,22.7718
2023-03-29T04:22:16.365Z,22.7755
2023-03-29T04:23:17.480Z,22.7735
2023-03-29T04:24:18.582Z,22.7767
2023-03-29T04:25:19.680Z,22.7596
2023-03-29T04:26:20.766Z,22.7498
2023-03-29T04:27:21.884Z,22.7540
2023-03-29T04:28:22.969Z,22.7474
2023-03-29T04:29:24.116Z,22.7419
2023-03-29T04:30:25.192Z,22.7232
2023-03-29T04:31:26.300Z,22.7294
2023-03-29T04:32:27.382Z,22.7321
2023-03-29T04:33:28.473Z,22.7366
2023-03-29T04:34:29.588Z,22.7407
2023-03-29T04:35:30.703Z,22.7411
2023-03-29T04:36:31.765Z,22.7012
2023-03-29T04:37:32.888Z,22.7191
2023-03-29T04:38:33.967Z,22.7076
2023-03-29T04:39:35.136Z,22.7064
2023-03-29T04:40:36.168Z,22.7179
2023-03-29T04:41:37.265Z,22.7097
2023-03-29T04:42:38.378Z,22.6862
2023-03-29T04:43:40.352Z,22.7402
2023-03-29T04:44:40.673Z,22.7386
2023-03-29T04:45:41.709Z,22.7265
2023-03-29T04:46:42.833Z,22.7160
2023-03-29T04:47:43.929Z,22.7147
2023-03-29T04:48:45.001Z,22.7268
2023-03-29T04:49:46.129Z,22.7122
2023-03-29T04:50:47.200Z,22.7106
2023-03-29T04:51:48.309Z,22.6943
2023-03-29T04:52:49.393Z,22.6907
2023-03-29T04:53:50.508Z,22.7010
2023-03-29T04:54:51.619Z,22.7116
2023-03-29T04:55:52.709Z,22.6938
2023-03-29T04:56:53.840Z,22.6982
2023-03-29T04:57:54.906Z,22.6987
2023-03-29T04:58:55.996Z,22.6869
2023-03-29T04:59:57.481Z,22.6884
2023-03-29T05:00:58.199Z,22.7038
2023-03-29T05:01:59.334Z,22.6855
2023-03-29T05:03:00.611Z,22.6932
2023-03-29T05:04:01.568Z,22.6867
2023-03-29T05:05:02.654Z,22.6903
2023-03-29T05:06:03.910Z,22.6724
2023-03-29T05:07:04.979Z,22.6654
2023-03-29T05:08:05.901Z,22.6750
2023-03-29T05:09:06.988Z,22.6576
2023-03-29T05:10:08.119Z,22.6673
2023-03-29T05:11:09.196Z,22.6701
2023-03-29T05:12:10.307Z,22.6577
2023-03-29T05:13:11.396Z,22.6679
2023-03-29T05:14:12.504Z,22.6748
2023-03-29T05:15:13.618Z,22.6842
2023-03-29T05:16:14.770Z,22.6826
2023-03-29T05:17:15.796Z,22.5928
2023-03-29T05:18:16.908Z,22.6432
2023-03-29T05:19:18.003Z,22.6652
2023-03-29T05:20:19.145Z,22.6555
2023-03-29T05:21:20.201Z,22.6769
2023-03-29T05:22:21.313Z,22.6334
2023-03-29T05:23:22.396Z,22.6577
2023-03-29T05:24:23.524Z,22.6374
2023-03-29T05:25:24.623Z,22.6551
2023-03-29T05:26:25.741Z,22.6563
2023-03-29T05:27:26.789Z,22.6563
2023-03-29T05:28:27.914Z,22.6593
2023-03-29T05:29:29.014Z,22.6624
2023-03-29T05:30:30.482Z,22.6616
2023-03-29T05:31:31.252Z,22.6458
2023-03-29T05:32:32.422Z,22.6288
2023-03-29T05:33:33.404Z,22.6259
2023-03-29T05:34:34.551Z,22.6283
2023-03-29T05:35:35.649Z,22.6313
2023-03-29T05:36:36.731Z,22.6406
2023-03-29T05:37:37.830Z,22.6313
2023-03-29T05:38:38.938Z,22.6220
2023-03-29T05:39:40.022Z,22.6139
2023-03-29T05:40:41.176Z,22.6088
2023-03-29T05:41:42.227Z,22.6280
2023-03-29T05:42:43.356Z,22.6360
2023-03-29T05:43:44.421Z,22.6263
2023-03-29T05:44:45.538Z,22.6365
2023-03-29T05:45:46.741Z,22.6361
2023-03-29T05:46:47.744Z,22.6559
2023-03-29T05:47:48.873Z,22.6482
2023-03-29T05:48:49.958Z,22.6312
2023-03-29T05:49:51.056Z,22.6617
2023-03-29T05:50:52.146Z,22.6523
2023-03-29T05:51:53.226Z,22.6551
2023-03-29T05:52:54.356Z,22.6580
2023-03-29T05:53:55.452Z,22.6497
2023-03-29T05:54:56.552Z,22.6373
2023-03-29T05:55:57.647Z,22.6384
2023-03-29T05:56:58.778Z,22.6583
2023-03-29T05:57:59.850Z,22.6331
2023-03-29T05:59:00.954Z,22.6352
2023-03-29T06:00:02.085Z,22.6631
2023-03-29T06:01:03.345Z,22.6586
2023-03-29T06:02:04.243Z,22.6519
2023-03-29T06:03:17.534Z,22.6521
2023-03-29T06:04:07.495Z,22.6559
2023-03-29T06:05:07.606Z,22.6539
2023-03-29T06:06:08.662Z,22.6728
2023-03-29T06:07:09.759Z,22.6282
2023-03-29T06:08:10.838Z,22.6693
2023-03-29T06:09:11.972Z,22.6600
2023-03-29T06:10:13.068Z,22.6425
2023-03-29T06:11:14.201Z,22.6311
2023-03-29T06:12:15.270Z,23.1255
2023-03-29T06:13:16.397Z,22.7320
2023-03-29T06:14:17.477Z,22.7592
2023-03-29T06:15:18.595Z,23.5052
2023-03-29T06:16:19.979Z,24.2983
2023-03-29T06:17:20.851Z,24.8670
2023-03-29T06:18:21.895Z,25.4046
2023-03-29T06:19:23.005Z,25.5522
2023-03-29T06:20:24.096Z,26.1451
2023-03-29T06:21:25.219Z,25.9894
2023-03-29T06:22:26.285Z,26.1487
2023-03-29T06:23:27.405Z,26.1939
2023-03-29T06:24:28.508Z,26.4018
2023-03-29T06:25:29.634Z,26.6163
2023-03-29T06:26:30.725Z,26.7133
2023-03-29T06:27:31.851Z,26.6749
2023-03-29T06:28:32.961Z,26.6473
2023-03-29T06:29:34.047Z,26.1946
2023-03-29T06:30:35.136Z,25.9929
2023-03-29T06:31:36.374Z,25.5678
2023-03-29T06:32:37.359Z,25.1423
2023-03-29T06:33:38.454Z,25.3481
2023-03-29T06:34:39.546Z,25.7568
2023-03-29T06:35:40.675Z,26.1031
2023-03-29T06:36:41.758Z,26.1300
2023-03-29T06:37:42.854Z,26.2340
2023-03-29T06:38:43.975Z,26.7318
2023-03-29T06:39:45.079Z,27.5096
2023-03-29T06:40:46.162Z,26.9597
2023-03-29T06:41:47.296Z,26.7246
2023-03-29T06:42:48.414Z,26.6729
2023-03-29T06:43:49.510Z,26.6782
2023-03-29T06:44:50.572Z,26.6499
2023-03-29T06:45:51.695Z,25.9790
2023-03-29T06:46:52.866Z,25.6375
2023-03-29T06:47:53.985Z,25.2912
2023-03-29T06:48:55.001Z,25.1415
2023-03-29T06:49:56.105Z,24.4336
2023-03-29T06:50:57.179Z,24.5296
2023-03-29T06:51:58.345Z,25.1369
2023-03-29T06:52:59.389Z,25.1963
2023-03-29T06:54:00.510Z,25.3240
2023-03-29T06:55:01.687Z,25.4852
2023-03-29T06:56:02.705Z,25.6331
2023-03-29T06:57:03.832Z,25.7027
2023-03-29T06:58:04.898Z,25.7166
2023-03-29T06:59:06.000Z,25.7531
2023-03-29T07:00:07.103Z,25.7801
2023-03-29T07:01:08.412Z,25.7860
2023-03-29T07:02:09.420Z,25.7881
2023-03-29T07:03:10.423Z,25.7969
2023-03-29T07:04:11.531Z,25.8305
2023-03-29T07:05:12.578Z,25.8819
2023-03-29T07:06:13.703Z,25.8708
2023-03-29T07:07:14.809Z,25.8462
2023-03-29T07:08:15.882Z,25.7922
2023-03-29T07:09:19.347Z,25.3583
2023-03-29T07:10:18.086Z,25.8002
2023-03-29T07:11:19.169Z,25.6939
2023-03-29T07:12:20.496Z,25.7937
2023-03-29T07:13:21.356Z,25.8965
2023-03-29T07:14:22.492Z,25.9228
2023-03-29T07:15:23.563Z,25.9145
2023-03-29T07:16:24.763Z,25.9311
2023-03-29T07:17:25.811Z,25.9218
2023-03-29T07:18:26.852Z,25.9358
2023-03-29T07:19:27.962Z,25.9523
2023-03-29T07:20:29.057Z,25.9461
2023-03-29T07:21:30.169Z,25.9416
2023-03-29T07:22:31.408Z,25.9326
2023-03-29T07:23:32.362Z,25.9570
2023-03-29T07:24:33.456Z,25.9342
2023-03-29T07:25:34.570Z,25.9419
2023-03-29T07:26:35.637Z,25.9359
2023-03-29T07:27:36.784Z,25.9377
2023-03-29T07:28:37.848Z,25.9473
2023-03-29T07:29:38.975Z,25.9209
2023-03-29T07:30:40.031Z,26.0234
2023-03-29T07:31:41.210Z,26.0476
2023-03-29T07:32:42.403Z,25.9388
2023-03-29T07:33:43.607Z,25.9695
2023-03-29T07:34:44.519Z,25.9831
2023-03-29T07:35:45.645Z,25.9368
2023-03-29T07:36:46.689Z,25.9520
2023-03-29T07:37:48.015Z,25.9511
2023-03-29T07:38:48.910Z,25.9225
2023-03-29T07:39:49.994Z,25.9365
2023-03-29T07:40:51.071Z,25.8991
2023-03-29T07:41:52.188Z,25.9064
2023-03-29T07:42:53.291Z,25.9346
2023-03-29T07:43:54.382Z,25.9305
2023-03-29T07:44:55.469Z,25.9614
2023-03-29T07:45:56.608Z,25.9537
2023-03-29T07:46:57.650Z,25.9140
2023-03-29T07:47:59.050Z,25.8858
2023-03-29T07:48:59.859Z,25.8892
2023-03-29T07:50:00.977Z,25.9473
2023-03-29T07:51:02.267Z,25.9558
2023-03-29T07:52:03.152Z,25.8856
2023-03-29T07:53:04.306Z,25.8839
2023-03-29T07:54:05.417Z,25.9033
2023-03-29T07:55:06.453Z,25.8833
2023-03-29T07:56:07.553Z,25.8475
2023-03-29T07:57:08.722Z,25.8355
2023-03-29T07:58:10.018Z,25.8312
2023-03-29T07:59:10.888Z,25.8352
2023-03-29T08:00:11.962Z,25.8480
2023-03-29T08:01:15.372Z,25.8322
2023-03-29T08:02:14.194Z,25.8582
2023-03-29T08:03:15.659Z,25.8588
2023-03-29T08:04:16.438Z,25.8489
2023-03-29T08:05:23.272Z,25.9122
2023-03-29T08:06:19.561Z,25.9938
2023-03-29T08:07:19.650Z,25.9914
2023-03-29T08:08:20.772Z,26.0235
2023-03-29T08:09:21.908Z,26.0253
2023-03-29T08:10:22.989Z,26.0436
2023-03-29T08:11:24.045Z,26.0298
2023-03-29T08:12:25.176Z,26.1633
2023-03-29T08:13:26.279Z,26.3454
2023-03-29T08:14:27.359Z,26.2522
2023-03-29T08:15:28.447Z,26.1594
2023-03-29T08:16:29.659Z,26.1630
2023-03-29T08:17:30.716Z,26.1891
2023-03-29T08:18:34.127Z,26.3640
2023-03-29T08:19:32.860Z,26.4552
2023-03-29T08:20:33.965Z,26.6819
2023-03-29T08:21:35.068Z,26.7746
2023-03-29T08:22:36.198Z,26.9408
2023-03-29T08:23:37.273Z,26.9998
2023-03-29T08:24:38.400Z,27.0692
2023-03-29T08:25:39.462Z,27.0344
2023-03-29T08:26:40.578Z,26.9931
2023-03-29T08:27:41.686Z,26.9385
2023-03-29T08:28:43.118Z,26.9581
2023-03-29T08:29:43.877Z,27.0345
2023-03-29T08:30:45.044Z,26.9999
2023-03-29T08:31:46.064Z,27.0170
2023-03-29T08:32:49.893Z,26.9647
2023-03-29T08:33:48.530Z,26.9644
2023-03-29T08:34:49.391Z,26.9724
2023-03-29T08:35:50.532Z,26.9523
2023-03-29T08:36:51.710Z,26.9927
2023-03-29T08:37:52.847Z,27.3543
2023-03-29T08:38:53.803Z,26.9806
2023-03-29T08:39:54.863Z,26.9638
2023-03-29T08:40:55.981Z,26.9500
2023-03-29T08:41:57.073Z,26.9934
2023-03-29T08:42:58.174Z,27.0555
2023-03-29T08:43:59.282Z,27.0106
2023-03-29T08:45:00.383Z,26.9494
2023-03-29T08:46:01.513Z,26.9969
2023-03-29T08:47:02.611Z,27.0205
2023-03-29T08:48:03.708Z,27.0752
2023-03-29T08:49:04.864Z,27.1444
2023-03-29T08:50:05.931Z,27.1604
2023-03-29T08:51:09.432Z,26.9778
2023-03-29T08:52:08.209Z,27.0141
2023-03-29T08:53:09.185Z,27.0366
2023-03-29T08:54:10.295Z,26.9629
2023-03-29T08:55:11.354Z,26.9766
2023-03-29T08:56:12.454Z,26.9655
2023-03-29T08:57:13.601Z,26.9943
2023-03-29T08:58:14.642Z,27.0106
2023-03-29T08:59:24.424Z,27.0398
2023-03-29T09:00:17.823Z,27.0249
2023-03-29T09:01:18.015Z,27.0032
2023-03-29T09:02:19.270Z,26.9772
2023-03-29T09:03:20.220Z,26.9683
2023-03-29T09:04:21.245Z,26.9562
2023-03-29T09:05:22.350Z,26.9670
2023-03-29T09:06:23.422Z,26.9476
2023-03-29T09:07:26.544Z,26.9449
2023-03-29T09:08:25.636Z,26.9459
2023-03-29T09:09:26.747Z,27.0412
2023-03-29T09:10:27.830Z,27.0390
2023-03-29T09:11:28.929Z,27.0132
2023-03-29T09:12:30.062Z,27.0308
2023-03-29T09:13:31.166Z,27.0258
2023-03-29T09:14:32.250Z,27.0097
2023-03-29T09:15:33.333Z,26.9919
2023-03-29T09:16:34.538Z,26.9390
2023-03-29T09:17:35.595Z,26.9113
2023-03-29T09:18:36.609Z,26.8899
2023-03-29T09:19:37.748Z,26.8524
2023-03-29T09:20:38.819Z,26.8255
2023-03-29T09:21:39.930Z,26.7910
2023-03-29T09:22:41.093Z,26.7731
2023-03-29T09:23:42.131Z,26.7268
2023-03-29T09:24:43.231Z,26.7466
2023-03-29T09:25:53.179Z,26.7709
2023-03-29T09:26:46.440Z,26.8351
2023-03-29T09:27:46.520Z,28.0363
2023-03-29T09:28:47.626Z,27.5520
2023-03-29T09:29:48.747Z,26.8580
2023-03-29T09:30:49.809Z,26.8054
2023-03-29T09:31:50.952Z,26.7713
2023-03-29T09:32:52.137Z,26.7706
2023-03-29T09:33:53.113Z,26.7687
2023-03-29T09:34:54.219Z,26.7712
2023-03-29T09:35:55.333Z,26.7859
2023-03-29T09:36:56.414Z,26.8041
2023-03-29T09:37:57.510Z,26.7961
2023-03-29T09:38:58.601Z,26.8139
2023-03-29T09:39:59.723Z,26.8117
2023-03-29T09:41:00.911Z,26.7839
2023-03-29T09:42:01.891Z,26.7975
2023-03-29T09:43:02.979Z,26.8292
2023-03-29T09:44:04.083Z,26.8668
2023-03-29T09:45:05.193Z,26.8838
2023-03-29T09:46:06.320Z,26.8977
2023-03-29T09:47:07.402Z,26.9007
2023-03-29T09:48:08.529Z,26.9821
2023-03-29T09:49:09.603Z,27.1236
2023-03-29T09:50:19.820Z,27.2181
2023-03-29T09:51:12.775Z,27.1582
2023-03-29T09:52:12.940Z,27.1856
2023-03-29T09:53:13.980Z,27.1922
2023-03-29T09:54:15.093Z,27.1733
2023-03-29T09:55:16.234Z,27.1862
2023-03-29T09:56:17.292Z,27.2231
2023-03-29T09:57:18.437Z,27.2835
2023-03-29T09:58:19.524Z,27.3250
2023-03-29T09:59:20.570Z,27.3511
2023-03-29T10:00:21.713Z,27.3803
2023-03-29T10:01:22.862Z,27.3899
2023-03-29T10:02:23.942Z,27.4567
2023-03-29T10:03:24.987Z,27.3703
2023-03-29T10:04:26.200Z,27.3944
2023-03-29T10:05:27.571Z,27.3732
2023-03-29T10:06:28.300Z,27.3676
2023-03-29T10:07:29.391Z,27.3362
2023-03-29T10:08:30.511Z,27.3223
2023-03-29T10:09:31.581Z,27.3123
2023-03-29T10:10:32.722Z,27.2899
2023-03-29T10:11:33.801Z,27.3214
2023-03-29T10:12:34.880Z,27.2974
2023-03-29T10:13:35.975Z,27.3385
2023-03-29T10:14:37.149Z,27.3333
2023-03-29T10:15:38.180Z,27.3012
2023-03-29T10:16:39.303Z,26.9801
2023-03-29T10:17:40.435Z,26.5258
2023-03-29T10:18:41.534Z,26.5173
2023-03-29T10:19:42.551Z,26.5927
2023-03-29T10:20:43.682Z,26.7927
2023-03-29T10:21:44.757Z,26.8917
2023-03-29T10:22:45.870Z,26.8720
2023-03-29T10:23:47.087Z,26.8343
2023-03-29T10:24:48.048Z,26.9315
2023-03-29T10:25:49.165Z,27.0577
2023-03-29T10:26:50.246Z,27.0299
2023-03-29T10:27:51.336Z,26.9060
2023-03-29T10:28:52.783Z,26.7434
2023-03-29T10:29:53.523Z,27.0713
2023-03-29T10:30:54.651Z,27.1192
2023-03-29T10:31:55.781Z,26.5915
2023-03-29T10:32:56.931Z,26.5681
2023-03-29T10:33:57.908Z,26.5461
2023-03-29T10:34:59.021Z,26.4468
2023-03-29T10:36:00.617Z,26.3228
2023-03-29T10:37:01.407Z,26.3162
2023-03-29T10:38:02.276Z,26.4102
2023-03-29T10:39:05.771Z,26.4852
2023-03-29T10:40:04.493Z,26.3862
2023-03-29T10:41:05.602Z,26.4137
2023-03-29T10:42:06.667Z,26.3830
2023-03-29T10:43:07.778Z,26.2562
2023-03-29T10:44:08.869Z,26.1645
2023-03-29T10:45:09.974Z,26.1703
2023-03-29T10:46:11.159Z,26.2120
2023-03-29T10:47:12.175Z,26.2029
2023-03-29T10:48:13.268Z,26.4218
2023-03-29T10:49:14.375Z,26.6230
2023-03-29T10:50:15.484Z,26.8030
2023-03-29T10:51:16.644Z,26.9030
2023-03-29T10:52:17.638Z,26.7998
2023-03-29T10:53:18.744Z,26.4376
2023-03-29T10:54:19.817Z,26.6024
2023-03-29T10:55:20.924Z,26.7031
2023-03-29T10:56:22.028Z,26.9540
2023-03-29T10:57:23.179Z,27.1856
2023-03-29T10:58:24.191Z,27.3133
2023-03-29T10:59:25.292Z,27.6316
2023-03-29T11:00:26.397Z,27.5984
2023-03-29T11:01:27.583Z,27.4731
2023-03-29T11:02:28.640Z,27.3974
2023-03-29T11:03:29.752Z,27.2164
2023-03-29T11:04:30.796Z,27.2531
2023-03-29T11:05:31.897Z,27.1575
2023-03-29T11:06:32.997Z,27.4384
2023-03-29T11:07:34.113Z,27.3648
2023-03-29T11:08:35.172Z,27.4572
2023-03-29T11:09:36.288Z,27.4867
2023-03-29T11:10:37.373Z,27.3792
2023-03-29T11:11:38.570Z,27.3681
2023-03-29T11:12:39.569Z,27.4050
2023-03-29T11:13:40.676Z,27.4526
2023-03-29T11:14:41.761Z,27.4257
2023-03-29T11:15:42.905Z,27.3829
2023-03-29T11:16:44.087Z,27.3684
2023-03-29T11:17:45.122Z,27.3279
2023-03-29T11:18:46.147Z,27.3072
2023-03-29T11:19:47.438Z,27.6012
2023-03-29T11:20:48.364Z,27.3005
2023-03-29T11:21:49.575Z,27.1200
2023-03-29T11:22:50.552Z,27.0785
2023-03-29T11:23:51.648Z,27.0026
2023-03-29T11:24:52.722Z,27.0157
2023-03-29T11:25:53.830Z,27.0045
2023-03-29T11:26:54.933Z,27.0757
2023-03-29T11:27:56.023Z,27.0871
2023-03-29T11:28:57.117Z,27.1203
2023-03-29T11:29:58.244Z,27.1497
2023-03-29T11:30:59.348Z,27.1482
2023-03-29T11:32:00.588Z,27.1374
2023-03-29T11:33:01.641Z,27.1283
2023-03-29T11:34:02.692Z,27.1250
2023-03-29T11:35:03.784Z,27.1208
2023-03-29T11:36:05.011Z,27.1267
2023-03-29T11:37:06.020Z,27.1666
2023-03-29T11:38:07.067Z,27.2086
2023-03-29T11:39:08.176Z,27.2236
2023-03-29T11:40:09.273Z,27.2250
2023-03-29T11:41:10.382Z,27.2184
2023-03-29T11:42:11.486Z,27.2552
2023-03-29T11:43:12.587Z,27.3587
2023-03-29T11:44:13.656Z,27.2452
2023-03-29T11:45:14.790Z,27.4060
2023-03-29T11:46:15.955Z,27.5608
2023-03-29T11:47:16.972Z,27.3853
2023-03-29T11:48:18.071Z,27.1836
2023-03-29T11:49:19.170Z,27.1826
2023-03-29T11:50:20.263Z,27.1633
2023-03-29T11:51:21.377Z,27.1128
2023-03-29T11:52:22.509Z,27.6008
2023-03-29T11:53:23.558Z,27.3052
2023-03-29T11:54:24.667Z,27.3752
2023-03-29T11:55:25.757Z,27.1283
2023-03-29T11:56:26.859Z,27.1396
2023-03-29T11:57:28.021Z,27.1591
2023-03-29T11:58:29.578Z,27.1332
2023-03-29T11:59:30.176Z,27.2786
2023-03-29T12:00:31.272Z,27.1892
2023-03-29T12:01:32.370Z,27.1980
2023-03-29T12:02:33.559Z,27.2161
2023-03-29T12:03:34.617Z,27.2412
2023-03-29T12:04:35.655Z,27.4814
2023-03-29T12:05:36.773Z,27.2478
2023-03-29T12:06:37.954Z,27.2277
2023-03-29T12:07:38.982Z,27.1771
2023-03-29T12:08:40.057Z,27.1985
2023-03-29T12:09:41.164Z,27.1961
2023-03-29T12:10:42.255Z,27.1990
2023-03-29T12:11:43.376Z,27.1814
2023-03-29T12:12:44.500Z,27.1998
2023-03-29T12:13:45.581Z,27.2153
2023-03-29T12:14:46.660Z,27.3515
2023-03-29T12:15:47.789Z,27.7506
2023-03-29T12:16:48.969Z,28.1185
2023-03-29T12:17:50.013Z,27.8087
2023-03-29T12:18:51.057Z,27.9960